Time;durP1;ratioP1;P1;durP2;ratioP2;P2;SDS_P1;SDS_P2;PMS_P1;PMS_P2;Temp;Humidity;BMP_temperature;BMP_pressure;BME280_temperature;BME280_humidity;BME280_pressure;Samples;Min_cycle;Max_cycle;Signal;HPM_P1;HPM_P2
2023/10/10 00:01:00;;;;;;;4.00;1.30;;;;;;;15.14;100.00;102855.00;4958882;28;20831;-76
2023/10/10 00:03:27;;;;;;;3.90;1.00;;;;;;;15.23;100.00;102866.59;4952712;28;21135;-76
2023/10/10 00:05:55;;;;;;;4.47;0.90;;;;;;;15.16;100.00;102874.59;4950339;28;20478;-76
2023/10/10 00:08:25;;;;;;;6.23;1.00;;;;;;;14.97;100.00;102832.66;4953726;28;20449;-76
2023/10/10 00:10:50;;;;;;;3.10;0.87;;;;;;;15.25;100.00;102851.91;4952057;28;20439;-75
2023/10/10 00:13:19;;;;;;;4.70;1.27;;;;;;;15.23;100.00;102862.03;4951776;28;20816;-76
2023/10/10 00:15:50;;;;;;;10.60;1.20;;;;;;;15.26;100.00;102861.69;4952065;28;20183;-76
2023/10/10 00:18:19;;;;;;;6.43;1.30;;;;;;;15.24;100.00;102861.00;4952897;28;20454;-75
2023/10/10 00:21:20;;;;;;;3.70;1.00;;;;;;;15.11;100.00;102860.78;4954445;28;20586;-76
2023/10/10 00:23:42;;;;;;;4.00;1.10;;;;;;;15.11;100.00;102866.19;4949907;28;20541;-76
2023/10/10 00:26:14;;;;;;;4.83;1.30;;;;;;;14.46;100.00;102749.41;4951494;28;20798;-75
2023/10/10 00:28:42;;;;;;;4.33;1.23;;;;;;;15.09;100.00;102866.34;4943681;28;20437;-76
2023/10/10 00:31:12;;;;;;;3.60;1.20;;;;;;;14.42;100.00;102755.34;4952753;28;20449;-75
2023/10/10 00:33:38;;;;;;;5.63;1.40;;;;;;;15.15;100.00;102871.03;4952187;28;20516;-76
2023/10/10 00:36:10;;;;;;;5.80;1.53;;;;;;;15.19;100.00;102860.72;4952149;28;20533;-76
2023/10/10 00:38:36;;;;;;;5.10;1.10;;;;;;;14.99;100.00;102829.81;4953636;28;20454;-76
2023/10/10 00:41:06;;;;;;;3.63;1.17;;;;;;;14.83;100.00;102807.25;4951370;28;20465;-76
2023/10/10 00:43:31;;;;;;;5.40;1.10;;;;;;;15.10;100.00;102859.94;4952828;28;21648;-76
2023/10/10 00:45:57;;;;;;;4.03;1.30;;;;;;;14.72;100.00;102809.53;4950580;28;20480;-76
2023/10/10 00:48:29;;;;;;;3.67;1.17;;;;;;;14.90;100.00;102829.00;4953920;28;20209;-76
2023/10/10 00:51:05;;;;;;;3.80;1.00;;;;;;;14.74;100.00;102823.69;4958628;28;20442;-76
2023/10/10 00:53:35;;;;;;;4.40;1.40;;;;;;;14.57;100.00;102807.59;4957480;28;20549;-76
2023/10/10 00:56:05;;;;;;;4.50;1.33;;;;;;;14.84;100.00;102841.38;4954451;28;20469;-76
2023/10/10 00:58:42;;;;;;;3.80;1.20;;;;;;;14.73;100.00;102835.53;4946026;28;20809;-76
2023/10/10 01:01:14;;;;;;;3.17;0.90;;;;;;;14.67;100.00;102832.53;4957110;28;20812;-75
2023/10/10 01:03:44;;;;;;;7.10;1.47;;;;;;;14.85;100.00;102866.53;4953099;28;20458;-75
2023/10/10 01:06:31;;;;;;;6.73;1.77;;;;;;;14.48;100.00;102814.00;4956970;28;20467;-76
2023/10/10 01:09:20;;;;;;;8.20;1.53;;;;;;;14.94;100.00;102878.13;4956553;28;20509;-75
2023/10/10 01:11:43;;;;;;;5.97;1.73;;;;;;;14.96;100.00;102890.44;4953430;28;20892;-76
2023/10/10 01:14:09;;;;;;;4.70;1.40;;;;;;;15.10;100.00;102902.31;4954043;28;20441;-76
2023/10/10 01:16:34;;;;;;;6.43;1.87;;;;;;;15.00;100.00;102905.28;4955124;28;20225;-76
2023/10/10 01:19:00;;;;;;;7.83;2.40;;;;;;;14.73;100.00;102886.84;4955375;28;20200;-76
2023/10/10 01:21:30;;;;;;;5.00;2.00;;;;;;;14.77;100.00;102894.41;4956853;28;20838;-76
2023/10/10 01:24:06;;;;;;;5.63;1.80;;;;;;;14.94;100.00;102930.31;4955924;28;20195;-76
2023/10/10 01:26:36;;;;;;;5.13;1.90;;;;;;;14.48;100.00;102866.16;4957496;28;20798;-76
2023/10/10 01:31:42;;;;;;;9.10;2.50;;;;;;;14.07;100.00;102827.69;4956171;28;20442;-76
2023/10/10 01:34:09;;;;;;;8.27;3.17;;;;;;;14.68;100.00;102942.22;4956738;28;20441;-75
2023/10/10 01:36:38;;;;;;;7.07;3.20;;;;;;;14.16;100.00;102872.50;4957128;28;20810;-76
2023/10/10 01:39:53;;;;;;;11.40;3.53;;;;;;;14.66;100.00;102951.53;4953864;28;20437;-75
2023/10/10 01:42:24;;;;;;;6.97;3.63;;;;;;;14.72;100.00;102977.00;4950453;28;20533;-75
2023/10/10 01:44:51;;;;;;;6.30;2.60;;;;;;;14.32;100.00;102917.53;4954239;28;20506;-76
2023/10/10 01:47:26;;;;;;;6.97;3.03;;;;;;;14.15;100.00;102914.03;4953125;28;20446;-76
2023/10/10 01:49:52;;;;;;;6.43;2.87;;;;;;;14.66;100.00;102983.94;4955241;28;20442;-76
2023/10/10 01:52:20;;;;;;;6.60;3.20;;;;;;;13.99;100.00;102912.19;4951427;28;20477;-76
2023/10/10 01:54:52;;;;;;;5.53;2.60;;;;;;;14.66;100.00;103025.28;4954616;28;20944;-76
2023/10/10 01:57:22;;;;;;;7.80;3.20;;;;;;;14.34;100.00;102991.06;4952741;28;20818;-75
2023/10/10 01:59:48;;;;;;;6.63;3.00;;;;;;;14.76;100.00;103048.59;4954969;28;20434;-76
2023/10/10 02:02:16;;;;;;;6.60;2.50;;;;;;;13.92;100.00;102943.56;4953895;28;20493;-76
2023/10/10 02:04:42;;;;;;;6.53;3.00;;;;;;;14.07;100.00;102978.78;4954767;28;20477;-76
2023/10/10 02:07:17;;;;;;;6.83;2.50;;;;;;;14.46;100.00;103038.31;4952311;28;20741;-76
2023/10/10 02:09:43;;;;;;;5.30;2.50;;;;;;;14.71;100.00;103072.56;4952127;28;20487;-75
2023/10/10 02:12:22;;;;;;;7.00;2.60;;;;;;;14.11;100.00;103009.81;4952541;28;20466;-76
2023/10/10 02:14:47;;;;;;;10.60;3.40;;;;;;;14.32;100.00;103049.81;4952814;28;20465;-76
2023/10/10 02:17:26;;;;;;;10.07;3.20;;;;;;;13.66;100.00;102967.16;4941426;28;20445;-75
2023/10/10 02:20:18;;;;;;;5.17;3.07;;;;;;;13.80;100.00;102993.47;4955402;28;20187;-76
2023/10/10 02:27:56;;;;;;;6.03;3.17;;;;;;;14.34;100.00;103128.75;4956094;28;20447;-75
2023/10/10 02:30:38;;;;;;;7.27;3.00;;;;;;;14.31;100.00;103102.09;4956101;28;20194;-75
2023/10/10 02:35:54;;;;;;;9.00;3.50;;;;;;;14.15;100.00;103129.94;4956793;28;20421;-76
2023/10/10 02:38:34;;;;;;;7.57;3.30;;;;;;;14.36;100.00;103167.22;4953742;28;20532;-76
2023/10/10 02:44:09;;;;;;;5.90;3.57;;;;;;;13.78;100.00;103130.34;4952138;28;20468;-76
2023/10/10 02:46:40;;;;;;;8.77;4.00;;;;;;;13.93;100.00;103184.50;4952470;28;20987;-76
2023/10/10 02:49:12;;;;;;;6.90;4.00;;;;;;;14.06;100.00;103219.13;4955402;28;20590;-75
2023/10/10 02:51:48;;;;;;;9.90;4.50;;;;;;;13.46;100.00;103158.88;4951233;28;20528;-76
2023/10/10 02:56:53;;;;;;;6.53;3.57;;;;;;;13.45;100.00;103189.56;4952292;28;20452;-76
2023/10/10 02:59:22;;;;;;;7.70;4.40;;;;;;;14.13;100.00;103320.03;4939900;28;20446;-76
2023/10/10 03:04:22;;;;;;;7.00;4.10;;;;;;;13.71;100.00;103321.66;4954617;28;20450;-76
2023/10/10 03:06:48;;;;;;;5.90;4.10;;;;;;;14.02;100.00;103402.94;4955313;28;20520;-76
2023/10/10 03:12:04;;;;;;;6.03;3.67;;;;;;;13.93;100.00;103430.03;4954459;28;20226;-76
2023/10/10 03:14:33;;;;;;;6.00;3.67;;;;;;;13.33;100.00;103352.53;4952246;28;20509;-76
2023/10/10 03:17:01;;;;;;;11.27;4.60;;;;;;;13.54;100.00;103415.09;4955548;28;20447;-76
2023/10/10 03:19:28;;;;;;;11.60;3.87;;;;;;;13.75;100.00;103463.28;4952184;28;21557;-76
2023/10/10 03:22:19;;;;;;;8.70;4.27;;;;;;;13.39;100.00;103415.78;4955100;28;20840;-76
2023/10/10 03:25:28;;;;;;;8.23;4.00;;;;;;;13.59;100.00;103468.53;4952678;28;22393;-76
2023/10/10 03:30:30;;;;;;;8.57;4.57;;;;;;;13.78;100.00;103499.91;4955078;28;20526;-76
2023/10/10 03:33:35;;;;;;;5.83;4.00;;;;;;;14.13;100.00;103585.38;4955027;28;20466;-76
2023/10/10 03:36:02;;;;;;;9.27;5.20;;;;;;;13.28;100.00;103479.72;4955005;28;20425;-76
2023/10/10 03:38:45;;;;;;;8.37;5.10;;;;;;;13.71;100.00;103555.44;4953245;28;20434;-76
2023/10/10 03:41:26;;;;;;;6.80;4.03;;;;;;;14.04;100.00;103623.25;4946473;28;20442;-76
2023/10/10 05:25:21;;;;;;;7.70;4.00;;;;;;;14.18;100.00;103596.56;4957097;28;20525;-76
2023/10/10 05:27:47;;;;;;;7.33;3.60;;;;;;;14.31;100.00;103606.94;4955861;28;20557;-77
2023/10/10 05:30:23;;;;;;;7.60;3.70;;;;;;;14.51;100.00;103652.69;4957747;28;21010;-76
2023/10/10 05:33:10;;;;;;;9.33;4.73;;;;;;;14.34;100.00;103613.88;4956862;28;20772;-76
2023/10/10 05:35:37;;;;;;;7.57;4.30;;;;;;;14.29;100.00;103618.91;4939643;28;20438;-76
2023/10/10 05:38:04;;;;;;;10.63;3.90;;;;;;;14.48;100.00;103651.13;4956437;28;20445;-76
2023/10/10 05:40:33;;;;;;;9.50;4.70;;;;;;;14.53;100.00;103646.16;4954926;28;20438;-75
2023/10/10 05:43:02;;;;;;;6.70;4.00;;;;;;;14.47;100.00;103652.16;4956400;28;20947;-76
2023/10/10 05:45:31;;;;;;;7.23;4.17;;;;;;;14.30;100.00;103634.13;4954021;28;21004;-76
2023/10/10 05:47:57;;;;;;;8.63;4.60;;;;;;;14.39;100.00;103646.69;4948770;28;20445;-77
2023/10/10 05:50:22;;;;;;;11.10;4.90;;;;;;;14.14;100.00;103610.50;4957758;28;20461;-76
2023/10/10 05:52:48;;;;;;;9.07;4.60;;;;;;;14.43;100.00;103672.34;4956668;28;20218;-76
2023/10/10 05:55:15;;;;;;;7.20;4.63;;;;;;;14.52;100.00;103697.59;4956592;28;20674;-76
2023/10/10 05:57:41;;;;;;;6.67;5.00;;;;;;;14.56;100.00;103707.13;4956603;28;20860;-76
2023/10/10 06:00:13;;;;;;;7.40;4.60;;;;;;;13.96;100.00;103614.06;4955859;28;20498;-76
2023/10/10 06:02:42;;;;;;;7.93;4.20;;;;;;;13.91;100.00;103605.56;4957790;28;20512;-76
2023/10/10 06:05:12;;;;;;;7.40;4.50;;;;;;;14.27;100.00;103645.22;4956089;28;20539;-75
2023/10/10 06:07:42;;;;;;;7.83;4.73;;;;;;;14.64;100.00;103709.91;4937972;28;20431;-76
2023/10/10 06:10:17;;;;;;;7.77;4.70;;;;;;;14.54;100.00;103693.75;4938921;28;20456;-76
2023/10/10 06:12:48;;;;;;;8.93;4.23;;;;;;;14.02;100.00;103612.59;4957859;28;20471;-77
2023/10/10 06:15:17;;;;;;;7.03;3.67;;;;;;;13.88;100.00;103588.84;4954486;28;20465;-76
2023/10/10 06:17:49;;;;;;;8.40;4.40;;;;;;;14.64;100.00;103718.84;4955969;28;20525;-76
2023/10/10 06:20:16;;;;;;;10.03;4.10;;;;;;;14.65;100.00;103727.78;4955938;28;20441;-76
2023/10/10 06:22:47;;;;;;;9.33;4.20;;;;;;;14.50;100.00;103711.25;4954026;28;20462;-76
2023/10/10 06:25:17;;;;;;;7.13;4.17;;;;;;;14.15;100.00;103653.56;4956260;28;20505;-76
2023/10/10 06:27:45;;;;;;;9.90;4.90;;;;;;;14.69;100.00;103735.44;4956482;28;20497;-76
2023/10/10 06:30:19;;;;;;;10.70;4.90;;;;;;;14.62;100.00;103714.59;4957768;28;20439;-76
2023/10/10 06:32:46;;;;;;;9.23;5.30;;;;;;;14.63;100.00;103714.41;4953689;28;20481;-76
2023/10/10 06:37:42;;;;;;;7.27;3.90;;;;;;;14.70;100.00;103703.88;4957311;28;20450;-76
2023/10/10 06:40:10;;;;;;;13.23;5.07;;;;;;;13.62;100.00;103546.44;4953931;28;20438;-76
2023/10/10 06:42:37;;;;;;;7.93;4.73;;;;;;;14.05;100.00;103630.31;4956347;28;20249;-76
2023/10/10 06:45:11;;;;;;;9.17;4.53;;;;;;;14.70;100.00;103717.38;4961844;28;20463;-76
2023/10/10 06:50:12;;;;;;;7.30;4.70;;;;;;;12.63;100.00;103398.94;5040392;23;20492;-75
2023/10/10 06:52:43;;;;;;;6.73;4.80;;;;;;;12.38;100.00;103338.59;4983873;28;20500;-76
2023/10/10 06:55:12;;;;;;;10.43;5.63;;;;;;;12.85;100.00;103432.72;4984619;28;20337;-76
2023/10/10 06:57:38;;;;;;;10.40;5.60;;;;;;;13.09;100.00;103487.88;4988236;28;20441;-77
2023/10/10 07:00:21;;;;;;;8.70;5.13;;;;;;;12.73;100.00;103398.91;4986022;28;20459;-76
2023/10/10 07:02:49;;;;;;;9.33;5.20;;;;;;;12.23;100.00;103310.47;4994353;23;21125;-76
2023/10/10 07:05:15;;;;;;;7.43;4.77;;;;;;;13.01;100.00;103440.13;5004344;28;20814;-76
2023/10/10 07:07:44;;;;;;;11.00;5.60;;;;;;;13.62;100.00;103559.06;5004056;28;20431;-76
2023/10/10 07:10:09;;;;;;;11.53;6.87;;;;;;;13.89;100.00;103614.84;4994831;28;20740;-76
2023/10/10 07:12:37;;;;;;;12.93;7.10;;;;;;;13.57;100.00;103543.38;4984549;28;20791;-77
2023/10/10 07:15:06;;;;;;;16.03;7.67;;;;;;;13.21;100.00;103483.97;4981721;28;20630;-75
2023/10/10 07:17:32;;;;;;;13.10;7.30;;;;;;;13.41;100.00;103500.88;4979270;28;20495;-76
2023/10/10 07:22:27;;;;;;;17.10;9.10;;;;;;;12.70;100.00;103334.59;4984396;28;21013;-76
2023/10/10 07:24:56;;;;;;;10.43;8.60;;;;;;;12.54;100.00;103304.78;4981567;28;20527;-76
2023/10/10 07:27:30;;;;;;;15.93;9.77;;;;;;;13.30;100.00;103471.47;4985220;28;20843;-76
2023/10/10 07:32:29;;;;;;;11.60;8.60;;;;;;;13.67;100.00;103517.16;4982253;28;20433;-76
2023/10/10 07:34:55;;;;;;;14.10;10.43;;;;;;;12.68;100.00;103301.56;4984331;28;20444;-76
2023/10/10 07:37:24;;;;;;;15.73;10.07;;;;;;;12.72;100.00;103324.50;4983281;28;20436;-77
2023/10/10 07:39:55;;;;;;;13.00;10.60;;;;;;;14.30;100.00;103588.22;4983117;28;20820;-76
2023/10/10 07:42:29;;;;;;;14.50;11.20;;;;;;;12.61;100.00;103266.34;4980625;28;20787;-76
2023/10/10 07:44:55;;;;;;;16.93;10.97;;;;;;;12.97;100.00;103300.50;4985241;28;20607;-76
2023/10/10 07:47:25;;;;;;;13.53;10.17;;;;;;;13.07;100.00;103357.84;4984793;28;20843;-77
2023/10/10 07:49:55;;;;;;;14.60;10.20;;;;;;;12.72;100.00;103265.25;4982274;28;20449;-76
2023/10/10 07:52:22;;;;;;;13.90;10.47;;;;;;;13.90;100.00;103455.47;4983920;28;20441;-77
2023/10/10 07:54:52;;;;;;;15.10;10.37;;;;;;;13.57;100.00;103382.41;4979543;28;20429;-77
2023/10/10 07:57:22;;;;;;;16.30;10.80;;;;;;;14.58;100.00;103519.59;4986124;28;20453;-76
2023/10/10 07:59:58;;;;;;;15.43;10.43;;;;;;;14.97;100.00;103547.97;4982461;28;20489;-76
2023/10/10 08:02:24;;;;;;;13.90;11.10;;;;;;;15.47;100.00;103621.00;4982899;28;20432;-76
2023/10/10 08:04:53;;;;;;;13.57;10.17;;;;;;;15.64;100.00;103612.94;4981837;28;20468;-76
2023/10/10 08:07:19;;;;;;;12.93;9.33;;;;;;;15.54;100.00;103594.16;4978384;28;20441;-76
2023/10/10 08:09:46;;;;;;;18.07;12.43;;;;;;;15.34;100.00;103580.06;4981939;28;20456;-77
2023/10/10 08:12:13;;;;;;;13.90;10.30;;;;;;;15.33;100.00;103543.19;4985173;28;20459;-77
2023/10/10 08:14:39;;;;;;;13.20;10.70;;;;;;;15.62;100.00;103555.44;4986272;28;20837;-76
2023/10/10 08:17:18;;;;;;;12.30;9.83;;;;;;;15.38;100.00;103473.25;4986116;28;20443;-76
2023/10/10 08:19:53;;;;;;;12.40;10.80;;;;;;;15.23;100.00;103440.59;4977996;28;20477;-76
2023/10/10 08:22:25;;;;;;;14.30;10.17;;;;;;;15.46;100.00;103450.78;4981597;28;20440;-76
2023/10/10 08:24:54;;;;;;;17.23;11.37;;;;;;;15.77;100.00;103489.72;4984626;28;20476;-76
2023/10/10 08:27:22;;;;;;;16.20;10.80;;;;;;;15.95;100.00;103508.50;4983539;28;20438;-76
2023/10/10 08:29:50;;;;;;;15.43;10.73;;;;;;;15.22;100.00;103365.06;4977972;28;20452;-76
2023/10/10 08:32:16;;;;;;;19.90;10.27;;;;;;;15.64;100.00;103410.03;4980430;28;20437;-75
2023/10/10 08:34:42;;;;;;;18.30;11.47;;;;;;;15.77;100.00;103380.63;4982185;28;20433;-76
2023/10/10 08:37:09;;;;;;;13.40;10.47;;;;;;;15.77;100.00;103340.03;4983870;28;20437;-76
2023/10/10 08:39:36;;;;;;;13.07;9.80;;;;;;;15.63;100.00;103278.50;4983550;28;20444;-75
2023/10/10 08:42:05;;;;;;;13.63;11.00;;;;;;;15.60;100.00;103230.97;4980472;28;20864;-76
2023/10/10 08:44:37;;;;;;;13.10;10.00;;;;;;;15.53;100.00;103220.00;4981595;28;20444;-76
2023/10/10 08:47:06;;;;;;;16.67;11.53;;;;;;;15.33;100.00;103159.22;4981598;28;20440;-75
2023/10/10 08:49:32;;;;;;;14.80;10.80;;;;;;;15.07;100.00;103110.78;4984819;28;20537;-76
2023/10/10 08:52:03;;;;;;;14.97;11.70;;;;;;;15.18;100.00;103118.53;4983809;28;20484;-76
2023/10/10 08:54:29;;;;;;;21.43;12.23;;;;;;;15.75;100.00;103198.66;4984808;28;20181;-76
2023/10/10 08:57:09;;;;;;;16.67;12.53;;;;;;;15.58;100.00;103163.50;4984217;28;20575;-75
2023/10/10 08:59:35;;;;;;;20.30;13.57;;;;;;;15.48;100.00;103140.41;4985096;28;20460;-75
2023/10/10 09:02:06;;;;;;;19.80;14.70;;;;;;;15.71;100.00;103173.00;4985616;28;20417;-76
2023/10/10 09:04:32;;;;;;;22.50;15.23;;;;;;;15.68;100.00;103174.19;4983819;28;20200;-75
2023/10/10 09:06:59;;;;;;;22.27;15.00;;;;;;;15.09;100.00;103082.59;4983212;28;20515;-75
2023/10/10 09:12:12;;;;;;;22.83;17.10;;;;;;;15.67;100.00;103169.72;4988438;28;20420;-75
2023/10/10 09:14:43;;;;;;;24.93;17.20;;;;;;;15.33;100.00;103107.84;4990457;28;20426;-75
2023/10/10 09:17:28;;;;;;;20.17;15.73;;;;;;;15.27;100.00;103095.03;4991220;28;20519;-75
2023/10/10 09:19:54;;;;;;;27.30;17.83;;;;;;;15.88;100.00;103192.66;4981882;28;20455;-76
2023/10/10 09:22:34;;;;;;;29.80;19.90;;;;;;;15.78;100.00;103169.38;4986933;28;20496;-75
2023/10/10 09:25:17;;;;;;;32.40;21.23;;;;;;;15.98;100.00;103194.16;4987118;28;20500;-75
2023/10/10 09:27:57;;;;;;;31.33;21.67;;;;;;;15.66;100.00;103132.88;4987234;28;20420;-75
2023/10/10 09:30:30;;;;;;;37.57;25.30;;;;;;;15.74;100.00;103137.47;4988243;28;20511;-75
2023/10/10 09:33:02;;;;;;;36.63;22.10;;;;;;;15.51;100.00;103088.69;4988267;28;20437;-76
2023/10/10 09:35:28;;;;;;;30.77;21.33;;;;;;;15.73;100.00;103106.81;4980096;28;20941;-76
2023/10/10 09:37:54;;;;;;;35.20;19.57;;;;;;;16.24;100.00;103174.03;4983902;28;20432;-76
2023/10/10 09:40:20;;;;;;;35.40;23.17;;;;;;;16.25;100.00;103173.00;4990038;28;20244;-75
2023/10/10 09:45:51;;;;;;;40.40;23.70;;;;;;;16.23;100.00;103150.69;4984707;28;20229;-75
2023/10/10 09:49:17;;;;;;;37.13;23.90;;;;;;;15.58;100.00;103033.69;4983406;28;20460;-75
2023/10/10 09:53:49;;;;;;;51.17;25.47;;;;;;;16.36;100.00;103098.63;4987499;28;20986;-75
2023/10/10 09:56:15;;;;;;;39.77;25.93;;;;;;;16.59;100.00;103118.38;4987937;28;20524;-75
2023/10/10 09:58:44;;;;;;;39.20;25.27;;;;;;;16.25;100.00;103024.06;4985024;28;20872;-75
2023/10/10 10:01:21;;;;;;;34.07;23.20;;;;;;;16.29;100.00;103003.72;4987153;28;20446;-76
2023/10/10 10:04:02;;;;;;;34.90;25.43;;;;;;;16.78;100.00;103056.56;4982564;28;20514;-76
2023/10/10 10:06:54;;;;;;;38.60;25.17;;;;;;;16.92;100.00;103066.56;4985068;28;20835;-75
2023/10/10 10:09:19;;;;;;;33.27;22.63;;;;;;;17.07;100.00;103058.47;4992565;28;20453;-75
2023/10/10 10:12:13;;;;;;;34.10;23.67;;;;;;;16.98;100.00;103017.06;4995396;28;20432;-75
2023/10/10 10:14:46;;;;;;;36.37;24.90;;;;;;;17.21;100.00;103016.91;4986510;28;20235;-75
2023/10/10 10:17:23;;;;;;;50.77;27.17;;;;;;;16.86;100.00;102950.78;4985493;28;20420;-76
2023/10/10 10:19:49;;;;;;;32.97;24.47;;;;;;;17.02;100.00;102934.31;4985421;28;20464;-76
2023/10/10 10:22:18;;;;;;;34.53;24.33;;;;;;;16.59;100.00;102861.00;4987955;28;20488;-76
2023/10/10 10:24:44;;;;;;;30.73;22.60;;;;;;;17.66;100.00;102968.78;4987199;28;20667;-75
2023/10/10 10:27:39;;;;;;;33.10;23.87;;;;;;;17.47;100.00;102931.44;4989406;28;20451;-76
2023/10/10 10:32:44;;;;;;;30.90;23.20;;;;;;;17.74;100.00;102935.25;4986479;28;20442;-75
2023/10/10 10:35:15;;;;;;;32.13;23.67;;;;;;;16.87;100.00;102806.13;4984214;28;20429;-76
2023/10/10 10:37:42;;;;;;;36.57;27.13;;;;;;;17.40;100.00;102883.38;4988427;28;20963;-75
2023/10/10 10:42:58;;;;;;;31.73;24.70;;;;;;;17.89;100.00;102892.59;4988041;28;20869;-75
2023/10/10 10:45:26;;;;;;;32.57;24.70;;;;;;;17.82;100.00;102891.72;4999083;28;20511;-75
2023/10/10 10:47:54;;;;;;;36.83;25.20;;;;;;;17.93;100.00;102876.75;4983937;28;20430;-76
2023/10/10 10:50:40;;;;;;;34.73;25.50;;;;;;;18.22;100.00;102890.06;4986625;28;20429;-76
2023/10/10 10:53:20;;;;;;;40.30;23.90;;;;;;;17.98;100.00;102807.22;4986943;28;20894;-76
2023/10/10 10:58:48;;;;;;;33.60;24.77;;;;;;;18.31;100.00;102850.00;4977268;28;20480;-75
2023/10/10 11:01:17;;;;;;;29.67;23.13;;;;;;;18.51;100.00;102814.78;4982251;28;21354;-76
2023/10/10 11:03:44;;;;;;;34.33;24.67;;;;;;;18.11;100.00;102711.44;4985616;28;20923;-76
2023/10/10 11:06:12;;;;;;;33.03;23.80;;;;;;;18.77;100.00;102786.84;4985213;28;20480;-75
2023/10/10 11:14:00;;;;;;;29.90;22.17;;;;;;;18.51;100.00;102673.47;4985884;28;20506;-76
2023/10/10 11:16:39;;;;;;;39.43;27.37;;;;;;;18.78;100.00;102706.16;4984383;28;20435;-75
2023/10/10 11:19:12;;;;;;;49.83;24.70;;;;;;;18.93;100.00;102663.28;4985775;28;20452;-76
2023/10/10 11:21:47;;;;;;;38.33;24.90;;;;;;;19.27;100.00;102677.69;4987015;28;20424;-75
2023/10/10 11:24:14;;;;;;;38.07;25.53;;;;;;;19.39;100.00;102659.66;4981913;28;20547;-76
2023/10/10 11:26:40;;;;;;;31.83;24.23;;;;;;;19.14;100.00;102527.03;4985675;28;20475;-76
2023/10/10 11:29:29;;;;;;;32.07;21.80;;;;;;;20.68;100.00;102609.50;4988262;28;20967;-76
2023/10/10 11:32:07;;;;;;;33.37;23.37;;;;;;;20.23;100.00;102537.97;4982571;28;20494;-76
2023/10/10 11:34:44;;;;;;;31.07;23.40;;;;;;;20.45;100.00;102544.69;4983121;28;20435;-76
2023/10/10 11:37:14;;;;;;;30.67;21.17;;;;;;;20.90;100.00;102502.72;4983338;28;20954;-76
2023/10/10 11:39:48;;;;;;;25.03;18.53;;;;;;;20.81;100.00;102389.56;4983832;28;20480;-76
2023/10/10 11:42:22;;;;;;;26.00;18.60;;;;;;;21.32;100.00;102429.13;4983266;28;20425;-75
2023/10/10 11:44:53;;;;;;;24.27;16.83;;;;;;;20.22;100.00;102312.88;4982969;28;20467;-76
2023/10/10 11:47:27;;;;;;;25.03;15.73;;;;;;;20.19;100.00;102253.41;4980988;28;20433;-76
2023/10/10 11:50:05;;;;;;;24.73;17.13;;;;;;;20.24;100.00;102385.16;4983214;28;20472;-76
2023/10/10 11:52:32;;;;;;;22.77;16.93;;;;;;;20.16;100.00;102365.53;4983436;28;20429;-75
2023/10/10 11:55:07;;;;;;;29.77;20.03;;;;;;;19.71;100.00;102382.13;4981270;28;20476;-76
2023/10/10 11:57:34;;;;;;;25.23;16.83;;;;;;;19.50;100.00;102369.66;4987004;28;20436;-76
2023/10/10 12:00:00;;;;;;;31.57;22.00;;;;;;;18.70;100.00;102304.91;4983371;28;20460;-76
2023/10/10 12:02:39;;;;;;;36.87;21.73;;;;;;;18.95;100.00;102349.34;4981148;28;20914;-76
2023/10/10 12:08:07;;;;;;;28.20;19.90;;;;;;;17.60;100.00;102209.84;4985243;28;20844;-76
2023/10/10 12:10:52;;;;;;;27.93;18.80;;;;;;;18.99;100.00;102425.03;4980296;28;20428;-77
2023/10/10 12:16:01;;;;;;;29.93;19.73;;;;;;;18.76;100.00;102401.91;4988504;28;20461;-78
2023/10/10 12:18:30;;;;;;;27.67;17.97;;;;;;;19.09;100.00;102428.09;4988045;28;20445;-75
2023/10/10 12:21:01;;;;;;;27.33;15.07;;;;;;;19.40;100.00;102428.13;4989959;28;20548;-76
2023/10/10 12:23:30;;;;;;;31.67;20.73;;;;;;;18.81;100.00;102358.63;4989505;28;20969;-76
2023/10/10 12:25:56;;;;;;;28.53;18.50;;;;;;;19.59;100.00;102376.53;4990485;28;20512;-76
2023/10/10 12:28:22;;;;;;;19.73;13.90;;;;;;;19.56;100.00;102372.34;4986749;28;20995;-75
2023/10/10 12:30:47;;;;;;;25.10;17.70;;;;;;;18.85;100.00;102286.44;4985391;28;20189;-75
2023/10/10 12:33:15;;;;;;;24.90;17.80;;;;;;;19.14;100.00;102366.56;4987667;28;20253;-76
2023/10/10 12:35:43;;;;;;;22.37;16.37;;;;;;;19.16;100.00;102371.81;4986086;28;20170;-75
2023/10/10 12:38:10;;;;;;;31.80;21.23;;;;;;;19.02;100.00;102365.59;4986806;28;20464;-76
2023/10/10 12:40:36;;;;;;;23.50;16.60;;;;;;;19.00;100.00;102348.66;4981557;28;20482;-78
2023/10/10 12:43:01;;;;;;;28.47;18.77;;;;;;;19.15;100.00;102346.50;4988708;28;20777;-76
2023/10/10 12:45:32;;;;;;;27.53;18.07;;;;;;;18.92;100.00;102302.72;4985594;28;20472;-76
2023/10/10 12:47:58;;;;;;;27.97;19.07;;;;;;;19.17;100.00;102262.78;4989798;28;20182;-76
2023/10/10 12:50:26;;;;;;;29.80;19.17;;;;;;;19.86;100.00;102254.63;4988178;28;20431;-76
2023/10/10 12:53:07;;;;;;;23.63;17.30;;;;;;;20.16;100.00;102281.91;4991220;28;20444;-76
2023/10/10 12:55:34;;;;;;;26.43;17.43;;;;;;;19.17;100.00;102178.47;4988567;28;20564;-76
2023/10/10 12:58:09;;;;;;;23.53;15.73;;;;;;;19.41;100.00;102162.31;4988191;28;20424;-76
2023/10/10 13:00:34;;;;;;;22.73;15.30;;;;;;;20.12;100.00;102111.84;4985200;28;20433;-76
2023/10/10 13:03:00;;;;;;;29.83;20.07;;;;;;;19.40;100.00;102152.50;4991609;28;20440;-76
2023/10/10 13:05:28;;;;;;;22.57;16.60;;;;;;;19.41;100.00;102162.31;4993545;28;20209;-76
2023/10/10 13:07:55;;;;;;;38.13;16.23;;;;;;;19.35;100.00;102185.84;4991832;28;20186;-75
2023/10/10 13:10:26;;;;;;;28.90;17.80;;;;;;;19.13;100.00;102176.44;4991661;28;20977;-76
2023/10/10 13:12:53;;;;;;;21.10;14.50;;;;;;;18.93;100.00;102152.97;4991836;28;20429;-76
2023/10/10 13:15:18;;;;;;;24.43;16.20;;;;;;;19.09;100.00;102145.28;4985095;28;20437;-76
2023/10/10 13:17:50;;;;;;;21.83;15.40;;;;;;;19.34;100.00;102184.16;4992960;28;20572;-76
2023/10/10 13:20:17;;;;;;;21.87;15.20;;;;;;;19.22;100.00;102180.53;4991176;28;20205;-75
2023/10/10 13:22:43;;;;;;;23.80;16.27;;;;;;;18.82;100.00;102123.78;4991821;28;20433;-76
2023/10/10 13:25:10;;;;;;;24.47;15.37;;;;;;;19.17;100.00;102181.19;4992814;28;20475;-76
2023/10/10 13:27:36;;;;;;;23.00;15.33;;;;;;;19.17;100.00;102183.91;4986632;28;20430;-76
2023/10/10 13:30:02;;;;;;;26.20;17.07;;;;;;;18.92;100.00;102102.38;5010853;28;20449;-75
2023/10/10 13:32:28;;;;;;;23.30;14.73;;;;;;;19.38;100.00;102141.00;4998693;28;20485;-76
2023/10/10 13:34:53;;;;;;;23.85;15.35;;;;;;;19.24;100.00;102121.31;4989188;28;20181;-76
2023/10/10 13:37:19;;;;;;;25.53;14.00;;;;;;;19.17;100.00;102099.59;4987706;28;20455;-76
2023/10/10 13:39:47;;;;;;;23.27;15.07;;;;;;;19.25;100.00;102095.75;4991234;28;20205;-75
2023/10/10 13:42:17;;;;;;;20.30;14.40;;;;;;;19.25;100.00;102086.75;5004339;23;20184;-71
2023/10/10 13:44:42;;;;;;;22.63;12.70;;;;;;;19.18;100.00;102059.66;4969839;28;20949;-71
2023/10/10 13:47:08;;;;;;;26.60;14.47;;;;;;;19.34;100.00;102090.84;4969398;28;20438;-71
2023/10/10 13:49:44;;;;;;;27.53;15.53;;;;;;;19.27;100.00;102090.94;4986016;28;20201;-71
2023/10/10 13:52:10;;;;;;;30.33;15.47;;;;;;;18.90;100.00;102043.84;4988494;28;20181;-71
2023/10/10 13:54:36;;;;;;;22.83;14.40;;;;;;;19.19;100.00;102107.53;4984174;28;20433;-71
2023/10/10 13:57:02;;;;;;;23.53;15.87;;;;;;;18.87;100.00;102047.84;4985253;28;20443;-71
2023/10/10 13:59:27;;;;;;;23.67;15.37;;;;;;;18.37;100.00;101960.06;4987003;28;20188;-71
2023/10/10 14:01:54;;;;;;;22.23;14.87;;;;;;;18.53;100.00;101981.25;4985289;28;20683;-71
2023/10/10 14:04:27;;;;;;;24.10;16.67;;;;;;;19.15;100.00;102076.41;4986381;28;20182;-71
2023/10/10 14:06:54;;;;;;;23.23;15.53;;;;;;;19.16;100.00;102084.34;4984153;28;20534;-71